Orbital elements of COSMOS 2251 DEB
| Launched | 15 June 1993 |
| Flight ended | – |
| Launch site | Plesetsk Missile and Space Complex, Russia |
| Owner | Commonwealth of Independent States (former USSR) |
| NORAD ID | 34609 |
| Date fetched |
Epoch osculation |
Inc. [°] |
Ecc. | RA asc node [hr] |
Arg Peri. [°] |
Mean anom [°] |
Mean motion [rev/day] |
Abs. mag |
| Date fetched |
Epoch osculation |
Inc. [°] |
Ecc. | RA asc node [hr] |
Arg Peri. [°] |
Mean anom [°] |
Mean motion [rev/day] |
Abs. mag |
| 2026 May 03 17:57 | 2026 Apr 30 12:36:46 | 73.7323 | 0.01421 | 14.1956 | 50.2518 | 321.8747 | 14.22354 | – |
| 2026 May 02 17:57 | 2026 Apr 30 12:36:46 | 73.7323 | 0.01421 | 14.1956 | 50.2518 | 321.8747 | 14.22354 | – |
| 2026 May 01 17:56 | 2026 Apr 30 12:36:46 | 73.7323 | 0.01421 | 14.1956 | 50.2518 | 321.8747 | 14.22354 | – |
| 2026 Apr 30 17:56 | 2026 Apr 30 12:36:46 | 73.7323 | 0.01421 | 14.1956 | 50.2518 | 321.8747 | 14.22354 | – |
| 2026 Apr 29 17:57 | 2026 Apr 24 08:18:44 | 73.7325 | 0.01423 | 14.9491 | 62.6797 | 321.8747 | 14.22354 | – |
| 2026 Apr 28 17:56 | 2026 Apr 24 08:18:44 | 73.7325 | 0.01423 | 14.9491 | 62.6797 | 321.8747 | 14.22354 | – |
| 2026 Apr 27 17:58 | 2026 Apr 24 08:18:44 | 73.7325 | 0.01423 | 14.9491 | 62.6797 | 321.8747 | 14.22354 | – |
| 2026 Apr 26 17:58 | 2026 Apr 24 08:18:44 | 73.7325 | 0.01423 | 14.9491 | 62.6797 | 321.8747 | 14.22354 | – |
| 2026 Apr 25 17:58 | 2026 Apr 24 08:18:44 | 73.7325 | 0.01423 | 14.9491 | 62.6797 | 321.8747 | 14.22354 | – |
| 2026 Apr 24 17:59 | 2026 Apr 24 08:18:44 | 73.7325 | 0.01423 | 14.9491 | 62.6797 | 321.8747 | 14.22354 | – |
| 2026 Apr 23 17:57 | 2026 Apr 19 08:18:49 | 73.7318 | 0.01424 | 15.5588 | 72.7261 | 321.8747 | 14.22354 | – |
| 2026 Apr 22 17:57 | 2026 Apr 19 08:18:49 | 73.7318 | 0.01424 | 15.5588 | 72.7261 | 321.8747 | 14.22354 | – |
| 2026 Apr 21 17:57 | 2026 Apr 19 08:18:49 | 73.7318 | 0.01424 | 15.5588 | 72.7261 | 321.8747 | 14.22354 | – |
| 2026 Apr 20 17:57 | 2026 Apr 19 08:18:49 | 73.7318 | 0.01424 | 15.5588 | 72.7261 | 321.8747 | 14.22354 | – |
| 2026 Apr 19 17:58 | 2026 Apr 19 08:18:49 | 73.7318 | 0.01424 | 15.5588 | 72.7261 | 321.8747 | 14.22354 | – |
| 2026 Apr 18 17:56 | 2026 Apr 12 19:52:24 | 73.7317 | 0.01427 | 16.3537 | 85.7833 | 321.8747 | 14.22354 | – |
| 2026 Apr 16 17:57 | 2026 Apr 12 19:52:24 | 73.7317 | 0.01427 | 16.3537 | 85.7833 | 321.8747 | 14.22354 | – |
| 2026 Apr 14 17:57 | 2026 Apr 12 19:52:24 | 73.7317 | 0.01427 | 16.3537 | 85.7833 | 321.8747 | 14.22354 | – |
| 2026 Apr 13 17:57 | 2026 Apr 12 19:52:24 | 73.7317 | 0.01427 | 16.3537 | 85.7833 | 321.8747 | 14.22354 | – |
| 2026 Apr 12 17:57 | 2026 Apr 08 10:39:54 | 73.7315 | 0.01428 | 16.8883 | 94.5648 | 321.8747 | 14.22354 | – |
| 2026 Apr 11 17:57 | 2026 Apr 08 10:39:54 | 73.7315 | 0.01428 | 16.8883 | 94.5648 | 321.8747 | 14.22354 | – |
| 2026 Apr 10 17:58 | 2026 Apr 08 10:39:54 | 73.7315 | 0.01428 | 16.8883 | 94.5648 | 321.8747 | 14.22354 | – |
| 2026 Apr 09 18:01 | 2026 Apr 08 10:39:54 | 73.7315 | 0.01428 | 16.8883 | 94.5648 | 321.8747 | 14.22354 | – |
| 2026 Apr 08 17:57 | 2026 Apr 08 10:39:54 | 73.7315 | 0.01428 | 16.8883 | 94.5648 | 321.8747 | 14.22354 | – |
| 2026 Apr 07 17:57 | 2026 Apr 01 18:12:30 | 73.7307 | 0.01431 | 17.7037 | 107.9305 | 321.8747 | 14.22354 | – |
| 2026 Apr 06 17:57 | 2026 Apr 01 18:12:30 | 73.7307 | 0.01431 | 17.7037 | 107.9305 | 321.8747 | 14.22354 | – |